< < Back
Terminal Aerodrome Forecast


Current Version              Previous Versions:   1  2  3  4  5  6  7  8  9  

Terminal Aerodrome Forecast

706
FTUS42 KFFC 121742
TAFFTY
TAF
KFTY 121742Z 1218/1318 29005KT P6SM FEW150
     FM130100 32013G20KT P6SM SKC
     FM131700 33011KT P6SM SKC=

Latest METAR

680
SAUS70 KWBC 122000 RRH
MTRFTY
METAR KFTY 121953Z 29015G21KT 10SM CLR 17/M01 A3004 RMK AO2 SLP172
T01671006


USA.gov is the U.S. government's official web portal to all federal, state and local government web resources and services.